Time;durP1;ratioP1;P1;durP2;ratioP2;P2;SDS_P1;SDS_P2;PMS_P1;PMS_P2;Temp;Humidity;BMP_temperature;BMP_pressure;BME280_temperature;BME280_humidity;BME280_pressure;Samples;Min_cycle;Max_cycle;Signal;HPM_P1;HPM_P2
2022/10/25 00:01:15;;;;;;;6.30;3.30;;;13.80;99.90;;;;;;4937087;29;20549;-71
2022/10/25 00:03:40;;;;;;;7.17;3.77;;;13.80;99.90;;;;;;4947979;29;20210;-71
2022/10/25 00:06:09;;;;;;;6.60;4.30;;;13.80;99.90;;;;;;4942463;28;20217;-71
2022/10/25 00:08:35;;;;;;;6.20;3.87;;;13.80;99.90;;;;;;4950786;28;20213;-71
2022/10/25 00:11:00;;;;;;;4.20;2.90;;;13.80;99.90;;;;;;4937908;28;20325;-71
2022/10/25 00:13:25;;;;;;;3.60;3.30;;;13.80;99.90;;;;;;4948685;29;20657;-71
2022/10/25 00:15:51;;;;;;;6.30;3.07;;;13.70;99.90;;;;;;4939998;28;20234;-72
2022/10/25 00:18:17;;;;;;;8.47;3.30;;;13.70;99.90;;;;;;4950734;29;20210;-70
2022/10/25 00:20:42;;;;;;;8.17;4.23;;;13.70;99.90;;;;;;4940702;29;20292;-73
2022/10/25 00:23:07;;;;;;;5.47;3.13;;;13.70;99.90;;;;;;4946172;28;20210;-70
2022/10/25 00:25:33;;;;;;;5.40;3.50;;;13.70;99.90;;;;;;4944477;28;20190;-70
2022/10/25 00:27:58;;;;;;;5.90;2.70;;;13.60;99.90;;;;;;4937808;28;20725;-71
2022/10/25 00:30:24;;;;;;;12.03;3.57;;;13.60;99.90;;;;;;4938500;29;20210;-70
2022/10/25 00:32:51;;;;;;;7.60;3.67;;;13.60;99.90;;;;;;4935697;29;20202;-70
2022/10/25 00:35:17;;;;;;;5.77;3.93;;;13.60;99.90;;;;;;4938406;29;20608;-69
2022/10/25 00:37:42;;;;;;;5.70;3.57;;;13.60;99.90;;;;;;4941167;29;20206;-72
2022/10/25 00:40:08;;;;;;;4.63;3.17;;;13.60;99.90;;;;;;4938497;29;20662;-71
2022/10/25 00:42:34;;;;;;;8.00;3.60;;;13.60;99.90;;;;;;4943712;29;20249;-69
2022/10/25 00:45:01;;;;;;;7.73;3.53;;;13.60;99.90;;;;;;4938490;29;20182;-69
2022/10/25 00:47:41;;;;;;;6.37;2.90;;;13.60;99.90;;;;;;4937629;29;20249;-70
2022/10/25 00:50:48;;;;;;;4.60;3.00;;;13.50;99.90;;;;;;4939538;29;20195;-70
2022/10/25 00:53:18;;;;;;;4.57;3.77;;;13.50;99.90;;;;;;4937776;28;20209;-71
2022/10/25 00:56:01;;;;;;;6.43;3.30;;;13.50;99.90;;;;;;4942718;29;20843;-71
2022/10/25 00:58:30;;;;;;;4.90;3.17;;;13.50;99.90;;;;;;4936938;29;20186;-71
2022/10/25 01:00:56;;;;;;;11.30;4.33;;;13.40;99.90;;;;;;4936655;29;20194;-72
2022/10/25 01:03:22;;;;;;;5.70;3.50;;;13.40;99.90;;;;;;4944933;29;20218;-72
2022/10/25 01:05:50;;;;;;;8.23;3.13;;;13.40;99.90;;;;;;4938195;29;20232;-72
2022/10/25 01:08:17;;;;;;;6.60;3.40;;;13.50;99.90;;;;;;4943668;29;20285;-72
2022/10/25 01:10:43;;;;;;;4.63;3.10;;;13.50;99.90;;;;;;4938992;29;20214;-72
2022/10/25 01:13:08;;;;;;;5.10;3.90;;;13.60;99.90;;;;;;4941084;29;20205;-71
2022/10/25 01:16:13;;;;;;;6.40;3.90;;;13.60;99.90;;;;;;4943411;29;20187;-72
2022/10/25 01:18:48;;;;;;;8.50;4.00;;;13.60;99.90;;;;;;4917626;29;20696;-72
2022/10/25 01:21:38;;;;;;;6.77;3.57;;;13.70;99.90;;;;;;4936607;29;20677;-72
2022/10/25 01:24:11;;;;;;;10.87;4.73;;;13.70;99.90;;;;;;4933615;29;20206;-73
2022/10/25 01:27:10;;;;;;;6.03;3.33;;;13.70;99.90;;;;;;4941638;29;20191;-73
2022/10/25 01:30:02;;;;;;;5.23;3.33;;;13.80;99.90;;;;;;4936711;29;20245;-72
2022/10/25 01:32:39;;;;;;;7.27;3.40;;;13.80;99.90;;;;;;4936288;29;20218;-71
2022/10/25 01:35:45;;;;;;;5.37;3.40;;;13.90;99.90;;;;;;4919319;29;20205;-71
2022/10/25 01:38:29;;;;;;;3.60;3.27;;;13.90;99.90;;;;;;4943158;28;21299;-71
2022/10/25 01:40:58;;;;;;;6.93;3.97;;;13.90;99.90;;;;;;4936288;29;20285;-71
2022/10/25 01:43:56;;;;;;;5.33;3.23;;;14.00;99.90;;;;;;4939589;29;20548;-71
2022/10/25 01:46:39;;;;;;;5.03;3.60;;;13.90;99.90;;;;;;4941796;29;20234;-73
2022/10/25 01:49:17;;;;;;;5.93;3.10;;;14.00;99.90;;;;;;4943925;29;20625;-71
2022/10/25 01:51:42;;;;;;;5.50;4.07;;;14.00;99.90;;;;;;4933998;29;20264;-71
2022/10/25 01:54:26;;;;;;;7.90;3.73;;;14.00;99.90;;;;;;4945834;28;20234;-72
2022/10/25 01:57:00;;;;;;;5.33;3.33;;;14.00;99.90;;;;;;4930405;29;20221;-69
2022/10/25 01:59:35;;;;;;;4.80;3.10;;;14.00;99.90;;;;;;4943957;29;20209;-70
2022/10/25 02:02:23;;;;;;;5.63;3.23;;;14.00;99.90;;;;;;4933230;29;20300;-70
2022/10/25 02:05:06;;;;;;;5.30;2.70;;;14.00;99.90;;;;;;4936020;29;20206;-71
2022/10/25 02:07:38;;;;;;;5.20;3.10;;;14.00;99.90;;;;;;4941660;29;20198;-70
2022/10/25 02:10:30;;;;;;;8.13;3.87;;;14.00;99.90;;;;;;4937936;29;20201;-71
2022/10/25 02:13:34;;;;;;;3.63;3.10;;;14.00;99.90;;;;;;4943818;29;20730;-73
2022/10/25 02:16:04;;;;;;;7.23;3.70;;;14.00;99.90;;;;;;4848627;29;20204;-71
2022/10/25 02:18:34;;;;;;;6.37;2.80;;;14.00;99.90;;;;;;4924565;29;20206;-72
2022/10/25 02:21:01;;;;;;;5.17;2.93;;;14.10;99.90;;;;;;4936477;29;20253;-73
2022/10/25 02:23:28;;;;;;;4.17;2.93;;;14.10;99.90;;;;;;4943402;29;20253;-73
2022/10/25 02:25:54;;;;;;;7.33;3.83;;;14.10;99.90;;;;;;4945312;29;20213;-72
2022/10/25 02:28:24;;;;;;;4.73;3.20;;;14.10;99.90;;;;;;4939367;29;20756;-71
2022/10/25 02:30:51;;;;;;;7.60;3.37;;;14.10;99.90;;;;;;4946170;29;20217;-71
2022/10/25 02:33:16;;;;;;;5.33;3.30;;;14.10;99.90;;;;;;4942341;29;20270;-70
2022/10/25 02:35:42;;;;;;;5.07;2.80;;;14.10;99.90;;;;;;4936434;29;20664;-71
2022/10/25 02:38:08;;;;;;;8.73;3.23;;;14.10;99.90;;;;;;4942993;29;20201;-71
2022/10/25 02:40:34;;;;;;;6.67;3.17;;;14.20;99.90;;;;;;4945144;29;20197;-71
2022/10/25 02:42:59;;;;;;;7.77;3.20;;;14.20;99.90;;;;;;4939094;29;20293;-71
2022/10/25 02:45:25;;;;;;;7.07;3.03;;;14.20;99.90;;;;;;4937144;29;20300;-71
2022/10/25 02:47:50;;;;;;;6.60;3.63;;;14.20;99.90;;;;;;4943223;29;20229;-71
2022/10/25 02:50:16;;;;;;;8.07;3.13;;;14.20;99.90;;;;;;4944793;29;20234;-71
2022/10/25 02:52:42;;;;;;;6.90;3.03;;;14.20;99.90;;;;;;4940826;28;20263;-71
2022/10/25 02:55:07;;;;;;;5.50;3.00;;;14.20;99.90;;;;;;4939325;29;20186;-71
2022/10/25 02:57:34;;;;;;;7.83;2.63;;;14.20;99.90;;;;;;4939065;29;20665;-71
2022/10/25 03:00:00;;;;;;;6.30;3.10;;;14.20;99.90;;;;;;4934663;29;20233;-71
2022/10/25 03:02:26;;;;;;;8.50;2.87;;;14.20;99.90;;;;;;4929076;29;20241;-71
2022/10/25 03:04:51;;;;;;;8.67;3.10;;;14.20;99.90;;;;;;4935810;29;20984;-71
2022/10/25 03:07:16;;;;;;;4.73;2.57;;;14.20;99.90;;;;;;4938263;29;20261;-72
2022/10/25 03:09:42;;;;;;;9.77;3.00;;;14.20;99.90;;;;;;4939332;29;20213;-72
2022/10/25 03:12:07;;;;;;;4.83;3.17;;;14.30;99.90;;;;;;4938268;29;20206;-72
2022/10/25 03:14:33;;;;;;;7.20;3.17;;;14.20;99.90;;;;;;4944794;29;20649;-72
2022/10/25 03:16:58;;;;;;;7.20;3.77;;;14.20;99.90;;;;;;4929588;29;20198;-72
2022/10/25 03:19:24;;;;;;;6.50;2.70;;;14.20;99.90;;;;;;4943450;29;20190;-71
2022/10/25 03:21:49;;;;;;;8.33;3.43;;;14.20;99.90;;;;;;4929644;29;20599;-72
2022/10/25 03:24:15;;;;;;;5.27;2.70;;;14.20;99.90;;;;;;4934889;29;20949;-72
2022/10/25 03:26:40;;;;;;;4.60;2.50;;;14.20;99.90;;;;;;4934988;29;20322;-72
2022/10/25 03:29:06;;;;;;;6.33;3.80;;;14.30;99.90;;;;;;4942640;29;20190;-72
2022/10/25 03:31:31;;;;;;;6.27;2.80;;;14.30;99.90;;;;;;4934862;29;20325;-72
2022/10/25 03:33:56;;;;;;;6.30;2.30;;;14.30;99.90;;;;;;4938397;29;20273;-72
2022/10/25 03:36:22;;;;;;;7.40;2.60;;;14.30;99.90;;;;;;4941998;29;20314;-72
2022/10/25 03:38:48;;;;;;;3.80;2.63;;;14.30;99.90;;;;;;4942264;29;20238;-72
2022/10/25 03:41:13;;;;;;;4.77;2.50;;;14.30;99.90;;;;;;4940760;29;20191;-72
2022/10/25 03:43:38;;;;;;;6.13;2.33;;;14.30;99.90;;;;;;4940763;29;20206;-71
2022/10/25 03:46:04;;;;;;;4.63;2.50;;;14.30;99.90;;;;;;4935420;29;20218;-73
2022/10/25 03:48:30;;;;;;;3.43;2.13;;;14.40;99.90;;;;;;4942401;29;20651;-73
2022/10/25 03:50:55;;;;;;;5.50;2.20;;;14.40;99.90;;;;;;4937822;29;20229;-72
2022/10/25 03:53:21;;;;;;;4.00;2.17;;;14.40;99.90;;;;;;4940488;28;20289;-71
2022/10/25 03:55:47;;;;;;;3.60;2.10;;;14.40;99.90;;;;;;4935251;29;20202;-71
2022/10/25 03:58:12;;;;;;;5.67;2.30;;;14.40;99.90;;;;;;4938340;29;20214;-71
2022/10/25 04:00:38;;;;;;;4.43;1.90;;;14.40;99.90;;;;;;4929701;29;20234;-71
2022/10/25 04:03:03;;;;;;;3.53;2.10;;;14.40;99.90;;;;;;4944942;28;20679;-71
2022/10/25 04:05:30;;;;;;;3.93;1.87;;;14.40;99.90;;;;;;4948125;29;20198;-72
2022/10/25 04:07:55;;;;;;;3.37;1.80;;;14.40;99.90;;;;;;4944424;29;20210;-72
2022/10/25 04:10:21;;;;;;;2.97;1.57;;;14.40;99.90;;;;;;4948155;29;20209;-70
2022/10/25 04:12:47;;;;;;;3.57;1.50;;;14.50;99.90;;;;;;4941798;29;20206;-70
2022/10/25 04:15:13;;;;;;;2.93;2.13;;;14.50;99.90;;;;;;4934119;28;20197;-70
2022/10/25 04:17:38;;;;;;;6.30;1.90;;;14.50;99.90;;;;;;4937523;29;20229;-71
2022/10/25 04:20:04;;;;;;;4.27;1.60;;;14.40;99.90;;;;;;4939006;29;20923;-71
2022/10/25 04:22:30;;;;;;;3.67;1.63;;;14.40;99.90;;;;;;4933877;29;20206;-74
2022/10/25 04:24:55;;;;;;;6.13;1.53;;;14.40;99.90;;;;;;4945745;29;20208;-73
2022/10/25 04:27:21;;;;;;;3.20;1.30;;;14.40;99.90;;;;;;4937068;29;20199;-72
2022/10/25 04:29:46;;;;;;;2.43;1.33;;;14.40;99.90;;;;;;4944869;29;20199;-71
2022/10/25 04:32:12;;;;;;;3.73;1.23;;;14.40;99.90;;;;;;4939370;29;20229;-73
2022/10/25 04:34:37;;;;;;;4.73;1.13;;;14.40;99.90;;;;;;4938418;29;20389;-71
2022/10/25 04:37:03;;;;;;;3.90;1.20;;;14.40;99.90;;;;;;4944818;29;20666;-70
2022/10/25 04:39:28;;;;;;;2.70;1.20;;;14.40;99.90;;;;;;4947379;29;20194;-71
2022/10/25 04:41:54;;;;;;;4.07;1.63;;;14.40;99.90;;;;;;4945644;29;20784;-71
2022/10/25 04:44:19;;;;;;;4.60;1.33;;;14.40;99.90;;;;;;4947223;29;20319;-71
2022/10/25 04:46:45;;;;;;;0.87;0.87;;;14.40;99.90;;;;;;4935853;29;20253;-73
2022/10/25 04:49:12;;;;;;;1.40;1.30;;;14.30;99.90;;;;;;4947355;29;20224;-73
2022/10/25 04:51:37;;;;;;;2.77;1.47;;;14.30;99.90;;;;;;4947353;29;20225;-73
2022/10/25 04:54:03;;;;;;;2.87;1.30;;;14.30;99.90;;;;;;4927693;29;20206;-71
2022/10/25 04:56:28;;;;;;;1.67;1.30;;;14.30;99.90;;;;;;4937384;29;20194;-71
2022/10/25 04:58:54;;;;;;;2.27;1.17;;;14.30;99.90;;;;;;4937072;29;20205;-71
2022/10/25 05:01:20;;;;;;;1.00;1.00;;;14.30;99.90;;;;;;4944330;29;20532;-71
2022/10/25 05:03:45;;;;;;;3.00;1.20;;;14.20;99.90;;;;;;4944311;29;20313;-71
2022/10/25 05:06:14;;;;;;;2.73;1.30;;;14.20;99.90;;;;;;4938511;29;20203;-71
2022/10/25 05:08:42;;;;;;;10.73;1.60;;;14.10;99.90;;;;;;4938783;29;20206;-71
2022/10/25 05:11:08;;;;;;;8.30;1.50;;;14.00;99.90;;;;;;4944012;29;20214;-71
2022/10/25 05:13:36;;;;;;;3.40;1.83;;;14.00;99.90;;;;;;4939696;28;20331;-71
2022/10/25 05:16:05;;;;;;;2.60;1.90;;;13.90;99.90;;;;;;4946603;29;20210;-71
2022/10/25 05:18:32;;;;;;;2.77;1.47;;;13.80;99.90;;;;;;4941321;29;20222;-71
2022/10/25 05:21:00;;;;;;;4.97;1.70;;;13.80;99.90;;;;;;4935931;29;20210;-70
2022/10/25 05:23:27;;;;;;;2.47;1.60;;;13.70;99.90;;;;;;4939788;29;20297;-72
2022/10/25 05:26:09;;;;;;;2.80;1.57;;;13.70;99.90;;;;;;4936641;29;20316;-70
2022/10/25 05:28:37;;;;;;;4.80;1.83;;;13.60;99.90;;;;;;4943145;29;20296;-71
2022/10/25 05:31:21;;;;;;;2.00;1.70;;;13.60;99.90;;;;;;4938313;29;20214;-71
2022/10/25 05:33:51;;;;;;;4.10;2.20;;;13.60;99.90;;;;;;4937385;29;20217;-71
2022/10/25 05:36:18;;;;;;;5.63;2.03;;;13.70;99.90;;;;;;4937288;29;20191;-71
2022/10/25 05:38:43;;;;;;;3.00;2.00;;;13.70;99.90;;;;;;4939432;29;20513;-70
2022/10/25 05:41:14;;;;;;;4.80;1.93;;;13.70;99.90;;;;;;4935807;29;20183;-71
2022/10/25 05:43:40;;;;;;;8.67;2.43;;;13.70;99.90;;;;;;4939723;29;20224;-70
2022/10/25 05:46:16;;;;;;;5.00;2.07;;;13.70;99.90;;;;;;4939718;29;20258;-72
2022/10/25 05:48:42;;;;;;;3.73;2.43;;;13.70;99.90;;;;;;4937498;29;20584;-71
2022/10/25 05:51:10;;;;;;;4.23;1.90;;;13.80;99.90;;;;;;4938398;29;20217;-71
2022/10/25 05:53:36;;;;;;;3.80;2.20;;;13.80;99.90;;;;;;4939332;29;20206;-69
2022/10/25 05:56:01;;;;;;;5.53;2.33;;;13.80;99.90;;;;;;4945700;29;20788;-69
2022/10/25 05:58:26;;;;;;;6.17;2.10;;;13.80;99.90;;;;;;4937292;29;20600;-70
2022/10/25 06:00:52;;;;;;;4.53;2.27;;;13.80;99.90;;;;;;4942355;29;20511;-69
2022/10/25 06:03:17;;;;;;;5.00;2.20;;;13.80;99.90;;;;;;4928099;29;20215;-70
2022/10/25 06:05:43;;;;;;;6.37;2.23;;;13.80;99.90;;;;;;4936629;29;20727;-69
2022/10/25 06:08:08;;;;;;;2.47;1.93;;;13.90;99.90;;;;;;4940066;29;20206;-69
2022/10/25 06:10:34;;;;;;;4.90;2.13;;;13.90;99.90;;;;;;4945894;29;20218;-70
2022/10/25 06:13:00;;;;;;;4.13;2.07;;;13.90;99.90;;;;;;4936823;29;20242;-70
2022/10/25 06:15:26;;;;;;;8.40;1.90;;;13.90;99.90;;;;;;4935934;29;20888;-69
2022/10/25 06:17:51;;;;;;;5.40;1.90;;;13.90;99.90;;;;;;4942921;29;20198;-70
2022/10/25 06:20:17;;;;;;;3.00;1.27;;;13.90;99.90;;;;;;4935733;29;20199;-70
2022/10/25 06:22:42;;;;;;;3.13;1.40;;;13.90;99.90;;;;;;4943700;29;20209;-70
2022/10/25 06:25:08;;;;;;;3.33;1.60;;;14.00;99.90;;;;;;4943075;28;20634;-70
2022/10/25 06:27:33;;;;;;;2.10;1.57;;;14.00;99.90;;;;;;4938063;29;20402;-69
2022/10/25 06:29:59;;;;;;;1.60;1.00;;;14.00;99.90;;;;;;4945453;29;20563;-70
2022/10/25 06:32:24;;;;;;;1.63;1.40;;;14.10;99.90;;;;;;4939660;29;20269;-70
2022/10/25 06:34:50;;;;;;;3.73;1.47;;;14.10;99.90;;;;;;4940234;29;20695;-69
2022/10/25 06:37:15;;;;;;;7.17;2.07;;;14.10;99.90;;;;;;4939325;29;20187;-70
2022/10/25 06:39:41;;;;;;;3.13;1.40;;;14.20;99.90;;;;;;4945235;29;20338;-70
2022/10/25 06:42:06;;;;;;;4.57;1.80;;;14.20;99.90;;;;;;4933174;29;20661;-70
2022/10/25 06:44:32;;;;;;;3.33;1.20;;;14.20;99.90;;;;;;4943906;29;20286;-69
2022/10/25 06:46:59;;;;;;;2.70;1.20;;;14.30;99.90;;;;;;4934188;29;20236;-69
2022/10/25 06:49:25;;;;;;;6.13;1.43;;;14.30;99.90;;;;;;4943013;29;20213;-70
2022/10/25 06:51:50;;;;;;;2.47;1.70;;;14.30;99.90;;;;;;4945267;29;20608;-72
2022/10/25 06:54:16;;;;;;;5.00;1.87;;;14.40;99.90;;;;;;4943106;28;20304;-71
2022/10/25 06:56:41;;;;;;;2.73;1.50;;;14.40;99.90;;;;;;4942920;29;20266;-71
2022/10/25 06:59:07;;;;;;;3.73;0.90;;;14.50;99.90;;;;;;4940136;29;20673;-71
2022/10/25 07:01:32;;;;;;;3.27;1.33;;;14.50;99.90;;;;;;4935545;29;20534;-71
2022/10/25 07:03:58;;;;;;;3.40;1.60;;;14.60;99.90;;;;;;4941085;29;20290;-71
2022/10/25 07:06:26;;;;;;;2.80;1.60;;;14.60;99.90;;;;;;4940597;29;20193;-71
2022/10/25 07:08:54;;;;;;;2.17;1.13;;;14.60;99.90;;;;;;4938945;29;20439;-72
2022/10/25 07:11:21;;;;;;;4.50;1.27;;;14.60;99.90;;;;;;4944919;29;20543;-71
2022/10/25 07:13:46;;;;;;;3.60;1.60;;;14.70;99.90;;;;;;4937603;29;20697;-76
2022/10/25 07:16:15;;;;;;;1.67;1.07;;;14.70;99.90;;;;;;4936391;29;20220;-78
2022/10/25 07:18:40;;;;;;;6.60;1.40;;;14.80;99.90;;;;;;4939619;29;20216;-79
2022/10/25 07:21:15;;;;;;;2.97;1.53;;;14.70;99.90;;;;;;4924780;29;20284;-78
2022/10/25 07:23:41;;;;;;;3.03;1.10;;;14.60;99.90;;;;;;4934002;29;20207;-77
2022/10/25 07:26:27;;;;;;;5.37;1.80;;;14.60;99.90;;;;;;4941949;29;20197;-76
2022/10/25 07:28:56;;;;;;;3.37;1.50;;;14.60;99.90;;;;;;4935422;29;20213;-77
2022/10/25 07:31:27;;;;;;;4.70;1.73;;;14.60;99.90;;;;;;4937439;29;20227;-77
2022/10/25 07:33:55;;;;;;;4.70;1.63;;;14.60;99.90;;;;;;4936180;29;20209;-76
2022/10/25 07:36:21;;;;;;;6.73;1.73;;;14.60;99.90;;;;;;4936022;29;20517;-77
2022/10/25 07:38:46;;;;;;;4.97;1.60;;;14.60;99.90;;;;;;4943094;29;20781;-75
2022/10/25 07:41:12;;;;;;;1.83;1.50;;;14.60;99.90;;;;;;4939948;29;20194;-75
2022/10/25 07:43:37;;;;;;;5.07;2.37;;;14.60;99.90;;;;;;4944365;29;20210;-75
2022/10/25 07:46:03;;;;;;;6.27;2.17;;;14.60;99.90;;;;;;4942183;29;20221;-73
2022/10/25 07:48:29;;;;;;;2.77;2.37;;;14.60;99.90;;;;;;4937653;29;20229;-72
2022/10/25 07:50:54;;;;;;;7.80;2.17;;;14.60;99.90;;;;;;4942145;29;20224;-69
2022/10/25 07:53:20;;;;;;;5.33;1.90;;;14.60;99.90;;;;;;4940725;29;20568;-70
2022/10/25 07:55:50;;;;;;;2.20;1.40;;;14.60;99.90;;;;;;4934867;29;20199;-70
2022/10/25 07:58:16;;;;;;;3.57;1.70;;;14.60;99.90;;;;;;4929541;29;20701;-71
2022/10/25 08:00:41;;;;;;;3.37;1.67;;;14.70;99.90;;;;;;4930972;29;20407;-72
2022/10/25 08:03:06;;;;;;;5.10;1.87;;;14.70;99.90;;;;;;4929708;29;20663;-70
2022/10/25 08:05:32;;;;;;;6.10;1.97;;;14.70;99.90;;;;;;4930848;29;20286;-72
2022/10/25 08:07:57;;;;;;;3.63;1.40;;;14.70;99.90;;;;;;4928930;29;20211;-72
2022/10/25 08:10:23;;;;;;;3.03;1.53;;;14.70;99.90;;;;;;4935211;29;20928;-71
2022/10/25 08:12:49;;;;;;;4.27;1.87;;;14.70;99.90;;;;;;4944559;29;20293;-71
2022/10/25 08:15:15;;;;;;;4.40;2.03;;;14.80;99.90;;;;;;4935682;29;20626;-71
2022/10/25 08:17:41;;;;;;;2.30;1.07;;;14.90;99.90;;;;;;4930172;29;20254;-72
2022/10/25 08:20:07;;;;;;;3.90;1.60;;;15.10;99.90;;;;;;4929676;29;20548;-70
2022/10/25 08:22:32;;;;;;;4.03;1.77;;;15.10;99.90;;;;;;4933515;29;20321;-70
2022/10/25 08:24:59;;;;;;;3.40;1.20;;;15.10;99.90;;;;;;4933966;29;20669;-70
2022/10/25 08:27:24;;;;;;;3.50;1.27;;;15.00;99.90;;;;;;4940162;29;20199;-72
2022/10/25 08:29:50;;;;;;;3.17;1.50;;;15.10;99.90;;;;;;4936656;29;20257;-72
2022/10/25 08:32:15;;;;;;;5.10;1.70;;;15.10;99.90;;;;;;4934133;29;20214;-75
2022/10/25 08:34:41;;;;;;;4.60;1.67;;;15.10;99.90;;;;;;4928659;29;20297;-71
2022/10/25 08:37:12;;;;;;;1.90;1.13;;;15.20;99.90;;;;;;4930789;29;20524;-76
2022/10/25 08:39:37;;;;;;;3.27;1.00;;;15.20;99.90;;;;;;4929322;29;20205;-77
2022/10/25 08:42:03;;;;;;;2.57;1.20;;;15.30;99.90;;;;;;4930662;29;21005;-75
2022/10/25 08:44:32;;;;;;;3.73;1.90;;;15.30;99.90;;;;;;4941103;29;20203;-73
2022/10/25 08:47:02;;;;;;;4.50;1.90;;;15.30;99.90;;;;;;4931694;29;20710;-72
2022/10/25 08:49:51;;;;;;;3.83;1.73;;;15.30;99.90;;;;;;4935603;28;20237;-72
2022/10/25 08:52:36;;;;;;;4.10;1.43;;;15.30;99.90;;;;;;4945774;29;20218;-72
2022/10/25 08:55:03;;;;;;;6.23;2.13;;;15.30;99.90;;;;;;4940250;29;20206;-72
2022/10/25 08:57:32;;;;;;;2.10;1.70;;;15.50;99.90;;;;;;4946469;29;20207;-74
2022/10/25 09:00:06;;;;;;;3.27;1.70;;;15.60;99.90;;;;;;4946635;29;20209;-73
2022/10/25 09:02:39;;;;;;;5.10;1.80;;;15.70;99.90;;;;;;4935751;29;20269;-71
2022/10/25 09:05:36;;;;;;;2.30;1.90;;;15.90;99.90;;;;;;4936802;29;20211;-73
2022/10/25 09:08:30;;;;;;;5.57;1.70;;;16.00;99.90;;;;;;4935616;29;20292;-72
2022/10/25 09:11:27;;;;;;;4.40;1.90;;;16.10;99.90;;;;;;4945308;29;20302;-72
2022/10/25 09:14:12;;;;;;;5.23;1.80;;;16.00;99.90;;;;;;4939976;29;20219;-72
2022/10/25 09:16:47;;;;;;;5.77;1.93;;;16.10;99.90;;;;;;4936968;29;20191;-71
2022/10/25 09:19:37;;;;;;;2.87;1.40;;;16.00;99.90;;;;;;4940776;29;20256;-72
2022/10/25 09:22:13;;;;;;;4.03;1.57;;;16.00;99.90;;;;;;4928197;29;20639;-76
2022/10/25 09:24:59;;;;;;;3.43;1.73;;;16.00;99.90;;;;;;4928505;29;20210;-73
2022/10/25 09:27:34;;;;;;;5.37;1.80;;;16.00;99.90;;;;;;4928854;29;20195;-76
2022/10/25 09:30:10;;;;;;;4.63;1.63;;;16.10;99.90;;;;;;4927858;29;20343;-74
2022/10/25 09:32:46;;;;;;;4.47;1.60;;;16.10;99.90;;;;;;4927913;29;20648;-73
2022/10/25 09:35:16;;;;;;;7.60;2.00;;;16.10;99.90;;;;;;4928861;29;20205;-73
2022/10/25 09:37:48;;;;;;;3.40;1.77;;;16.10;99.90;;;;;;4931917;29;20323;-75
2022/10/25 09:40:37;;;;;;;6.40;2.23;;;16.10;99.90;;;;;;4936792;29;20235;-69
2022/10/25 09:43:07;;;;;;;3.93;1.53;;;16.10;99.90;;;;;;4929615;29;20971;-70
2022/10/25 09:45:58;;;;;;;3.93;1.37;;;16.10;99.90;;;;;;4946494;29;20194;-70
2022/10/25 09:48:26;;;;;;;2.60;1.60;;;16.10;99.90;;;;;;4921343;29;20219;-70
2022/10/25 09:51:23;;;;;;;5.43;1.90;;;16.20;99.90;;;;;;4934355;29;20308;-71
2022/10/25 09:53:50;;;;;;;2.90;1.83;;;16.30;99.90;;;;;;4942533;28;20214;-69
2022/10/25 09:56:16;;;;;;;2.70;1.83;;;16.40;99.90;;;;;;4937311;29;20249;-69
2022/10/25 09:58:45;;;;;;;5.77;2.17;;;16.40;99.90;;;;;;4920493;29;20199;-73
2022/10/25 10:01:20;;;;;;;5.70;2.23;;;16.50;99.90;;;;;;4927936;29;20206;-71
2022/10/25 10:03:45;;;;;;;7.70;2.63;;;16.50;99.90;;;;;;4930239;29;20681;-71
2022/10/25 10:06:30;;;;;;;3.63;1.93;;;16.60;99.90;;;;;;4939700;29;20278;-70
2022/10/25 10:09:03;;;;;;;5.07;2.37;;;16.60;99.90;;;;;;4940176;29;20205;-70
2022/10/25 10:11:30;;;;;;;5.50;2.37;;;16.60;99.90;;;;;;4936594;29;20297;-70
2022/10/25 10:14:02;;;;;;;7.23;2.60;;;16.60;99.90;;;;;;4935850;29;20245;-71
2022/10/25 10:16:35;;;;;;;4.37;1.90;;;16.50;99.90;;;;;;4930129;29;20599;-70
2022/10/25 10:19:15;;;;;;;5.37;2.00;;;16.50;99.90;;;;;;4940672;29;20447;-69
2022/10/25 10:21:43;;;;;;;3.87;2.03;;;16.50;99.90;;;;;;4945786;29;20202;-69
2022/10/25 10:24:18;;;;;;;6.43;2.07;;;16.50;99.90;;;;;;4938381;29;20202;-69
2022/10/25 10:26:48;;;;;;;5.23;2.00;;;16.50;99.90;;;;;;4933562;29;20208;-73
2022/10/25 10:29:19;;;;;;;4.73;2.20;;;16.40;99.90;;;;;;4933313;29;20646;-70
2022/10/25 10:31:51;;;;;;;5.30;2.00;;;16.50;99.90;;;;;;4929063;29;20269;-69
2022/10/25 10:34:25;;;;;;;6.53;1.93;;;16.50;99.90;;;;;;4938539;29;20203;-69
2022/10/25 10:37:06;;;;;;;2.93;1.60;;;16.50;99.90;;;;;;4935722;29;20672;-70
2022/10/25 10:39:31;;;;;;;7.10;1.90;;;16.50;99.90;;;;;;4927558;29;20526;-69
2022/10/25 10:42:02;;;;;;;2.30;1.20;;;16.50;99.90;;;;;;4936252;29;21036;-70
2022/10/25 10:44:34;;;;;;;5.70;2.03;;;16.50;99.90;;;;;;4937340;29;20685;-70
2022/10/25 10:47:08;;;;;;;7.30;2.23;;;16.60;99.90;;;;;;4939217;29;20230;-70
2022/10/25 10:49:37;;;;;;;5.43;1.63;;;16.60;99.90;;;;;;4937025;29;20193;-69
2022/10/25 10:52:03;;;;;;;5.87;1.77;;;16.60;99.90;;;;;;4944037;29;20217;-74
2022/10/25 10:54:34;;;;;;;5.63;2.00;;;16.60;99.90;;;;;;4935463;29;20344;-68
2022/10/25 10:57:02;;;;;;;5.87;1.93;;;16.70;99.90;;;;;;4938639;29;20196;-68
2022/10/25 10:59:35;;;;;;;7.47;2.27;;;16.80;99.90;;;;;;4932341;29;20619;-70
2022/10/25 11:02:36;;;;;;;5.87;2.13;;;16.80;99.90;;;;;;4929419;29;20203;-71
2022/10/25 11:05:16;;;;;;;2.70;1.50;;;17.00;99.90;;;;;;4926920;29;20871;-69
2022/10/25 11:07:42;;;;;;;3.50;1.77;;;17.10;99.90;;;;;;4928434;29;20199;-69
2022/10/25 11:10:13;;;;;;;5.63;2.30;;;17.20;99.90;;;;;;4925039;29;20660;-70
2022/10/25 11:12:39;;;;;;;3.77;2.07;;;17.50;99.90;;;;;;4926782;29;20222;-69
2022/10/25 11:15:12;;;;;;;5.27;1.77;;;17.50;99.90;;;;;;4925022;29;20208;-70
2022/10/25 11:17:56;;;;;;;7.50;2.60;;;17.40;99.90;;;;;;4929281;29;20206;-69
2022/10/25 11:20:47;;;;;;;7.13;1.90;;;17.40;99.90;;;;;;4927154;29;20206;-70
2022/10/25 11:23:35;;;;;;;6.57;2.50;;;17.30;99.90;;;;;;4925713;29;20288;-69
2022/10/25 11:26:35;;;;;;;2.77;1.17;;;17.30;99.90;;;;;;4929611;29;20203;-70
2022/10/25 11:29:25;;;;;;;5.53;2.53;;;17.30;99.90;;;;;;4921711;29;20256;-71
2022/10/25 11:32:20;;;;;;;7.70;1.97;;;17.20;99.90;;;;;;4931039;29;20213;-72
2022/10/25 11:34:55;;;;;;;3.00;1.67;;;17.30;99.90;;;;;;4937834;29;20239;-72
2022/10/25 11:37:37;;;;;;;5.77;2.77;;;17.30;99.90;;;;;;4933014;29;20194;-77
2022/10/25 11:40:16;;;;;;;2.83;1.67;;;17.40;99.90;;;;;;4944254;29;20339;-81
2022/10/25 11:43:18;;;;;;;6.53;1.90;;;17.40;99.90;;;;;;4935116;29;20205;-77
2022/10/25 11:45:47;;;;;;;4.10;2.03;;;17.50;99.90;;;;;;4940752;29;20194;-80
2022/10/25 11:48:18;;;;;;;8.33;2.67;;;17.50;99.90;;;;;;4942648;29;20212;-81
2022/10/25 11:51:06;;;;;;;4.00;2.00;;;17.60;99.90;;;;;;4945363;29;20317;-79
2022/10/25 11:54:12;;;;;;;6.10;2.07;;;17.70;99.90;;;;;;4944264;28;20296;-84
2022/10/25 11:57:02;;;;;;;6.53;2.50;;;17.70;99.90;;;;;;4927987;29;20197;-70
2022/10/25 12:00:01;;;;;;;7.20;2.20;;;17.70;99.90;;;;;;4934049;29;20290;-72
2022/10/25 12:03:02;;;;;;;5.83;1.90;;;17.70;99.90;;;;;;4963321;29;20431;-82
2022/10/25 12:06:06;;;;;;;7.60;1.80;;;17.80;99.90;;;;;;4956318;29;20209;-81
2022/10/25 12:09:02;;;;;;;4.47;1.50;;;18.10;99.90;;;;;;4958134;29;20203;-83
2022/10/25 12:11:31;;;;;;;2.23;1.37;;;18.60;99.90;;;;;;4933033;29;20297;-76
2022/10/25 12:14:03;;;;;;;3.17;1.63;;;18.70;99.90;;;;;;4924966;29;20207;-76
2022/10/25 12:16:30;;;;;;;2.63;1.60;;;18.50;99.90;;;;;;4945555;29;20191;-78
2022/10/25 12:19:05;;;;;;;4.73;1.77;;;18.10;99.90;;;;;;4945223;29;20198;-78
2022/10/25 12:21:41;;;;;;;5.67;2.23;;;17.90;99.90;;;;;;4934240;29;20221;-77
2022/10/25 12:24:15;;;;;;;5.27;2.13;;;17.90;99.90;;;;;;4936267;29;20560;-76
2022/10/25 12:26:42;;;;;;;3.27;1.80;;;18.10;99.90;;;;;;4937766;29;20193;-79
2022/10/25 12:29:19;;;;;;;4.13;1.60;;;18.40;99.90;;;;;;4932847;29;20206;-77
2022/10/25 12:31:50;;;;;;;4.63;1.87;;;18.70;99.90;;;;;;4931517;29;20712;-77
2022/10/25 12:34:28;;;;;;;3.80;1.90;;;19.10;99.90;;;;;;4932456;29;20697;-77
2022/10/25 12:37:03;;;;;;;5.93;1.70;;;19.10;99.90;;;;;;4939985;29;20657;-78
2022/10/25 12:39:38;;;;;;;7.57;2.07;;;19.10;99.90;;;;;;4941325;29;20210;-77
2022/10/25 12:42:13;;;;;;;4.03;1.90;;;19.40;99.90;;;;;;4940153;29;20371;-79
2022/10/25 12:45:11;;;;;;;4.40;1.30;;;19.80;99.90;;;;;;4931694;29;20352;-78
2022/10/25 12:47:56;;;;;;;4.60;1.53;;;20.30;99.90;;;;;;4938087;29;20255;-79
2022/10/25 12:50:31;;;;;;;5.23;1.93;;;20.00;99.90;;;;;;4932585;29;20272;-79
2022/10/25 12:53:40;;;;;;;8.07;1.43;;;19.90;99.90;;;;;;4931293;29;20210;-79
2022/10/25 12:56:38;;;;;;;2.60;1.63;;;20.20;99.90;;;;;;4928491;29;20191;-79
2022/10/25 12:59:22;;;;;;;5.93;1.50;;;20.60;99.90;;;;;;4926232;29;20203;-79
2022/10/25 13:02:09;;;;;;;1.93;1.40;;;21.00;99.90;;;;;;4930673;29;20237;-79
2022/10/25 13:04:40;;;;;;;4.67;1.87;;;21.50;99.90;;;;;;4927801;29;20282;-78
2022/10/25 13:07:07;;;;;;;4.07;1.37;;;20.80;99.90;;;;;;4935181;29;20745;-77
2022/10/25 13:09:35;;;;;;;3.40;2.07;;;20.00;99.90;;;;;;4927846;29;20205;-78